sensor_id;sensor_type;location;lat;lon;timestamp;pressure;altitude;pressure_sealevel;temperature;humidity
44079;BME280;29744;49.078;12.878;2023-05-22T00:01:58;96202.38;;;16.23;40.61
44079;BME280;29744;49.078;12.878;2023-05-22T00:06:59;96211.28;;;16.23;41.04
44079;BME280;29744;49.078;12.878;2023-05-22T00:11:59;96207.78;;;16.23;40.68
44079;BME280;29744;49.078;12.878;2023-05-22T00:16:59;96208.91;;;16.22;40.66
44079;BME280;29744;49.078;12.878;2023-05-22T00:22:00;96205.09;;;16.23;40.65
44079;BME280;29744;49.078;12.878;2023-05-22T00:27:00;96205.09;;;16.23;40.91
44079;BME280;29744;49.078;12.878;2023-05-22T00:32:00;96206.22;;;16.22;40.91
44079;BME280;29744;49.078;12.878;2023-05-22T00:37:01;96207.78;;;16.23;41.00
44079;BME280;29744;49.078;12.878;2023-05-22T00:42:01;96204.63;;;16.21;40.65
44079;BME280;29744;49.078;12.878;2023-05-22T00:47:01;96201.94;;;16.21;41.27
44079;BME280;29744;49.078;12.878;2023-05-22T00:52:02;96206.56;;;16.20;41.17
44079;BME280;29744;49.078;12.878;2023-05-22T00:57:02;96201.16;;;16.20;41.26
44079;BME280;29744;49.078;12.878;2023-05-22T01:02:03;96199.56;;;16.19;41.19
44079;BME280;29744;49.078;12.878;2023-05-22T01:07:04;96200.34;;;16.20;40.93
44079;BME280;29744;49.078;12.878;2023-05-22T01:12:26;96203.06;;;16.20;40.84
44079;BME280;29744;49.078;12.878;2023-05-22T01:17:38;96198.00;;;16.18;40.99
44079;BME280;29744;49.078;12.878;2023-05-22T01:33:42;96198.31;;;16.17;41.19
44079;BME280;29744;49.078;12.878;2023-05-22T01:38:44;96192.13;;;16.16;40.92
44079;BME280;29744;49.078;12.878;2023-05-22T01:43:45;96188.63;;;16.16;41.29
44079;BME280;29744;49.078;12.878;2023-05-22T01:48:45;96194.03;;;16.16;41.24
44079;BME280;29744;49.078;12.878;2023-05-22T01:53:55;96200.25;;;16.16;40.88
44079;BME280;29744;49.078;12.878;2023-05-22T02:04:30;96195.19;;;16.15;40.99
44079;BME280;29744;49.078;12.878;2023-05-22T02:09:32;96189.75;;;16.15;40.93
44079;BME280;29744;49.078;12.878;2023-05-22T02:14:34;96187.06;;;16.15;40.86
44079;BME280;29744;49.078;12.878;2023-05-22T02:19:35;96181.31;;;16.16;40.73
44079;BME280;29744;49.078;12.878;2023-05-22T02:24:36;96181.66;;;16.15;41.22
44079;BME280;29744;49.078;12.878;2023-05-22T02:29:36;96173.88;;;16.13;41.32
44079;BME280;29744;49.078;12.878;2023-05-22T02:34:37;96173.88;;;16.13;40.93
44079;BME280;29744;49.078;12.878;2023-05-22T02:39:37;96161.91;;;16.14;40.97
44079;BME280;29744;49.078;12.878;2023-05-22T02:44:37;96168.47;;;16.13;41.32
44079;BME280;29744;49.078;12.878;2023-05-22T02:49:38;96170.38;;;16.13;41.23
44079;BME280;29744;49.078;12.878;2023-05-22T02:54:38;96166.53;;;16.14;40.97
44079;BME280;29744;49.078;12.878;2023-05-22T02:59:38;96156.84;;;16.13;40.93
44079;BME280;29744;49.078;12.878;2023-05-22T03:04:39;96156.06;;;16.12;40.89
44079;BME280;29744;49.078;12.878;2023-05-22T03:09:39;96150.66;;;16.12;41.14
44079;BME280;29744;49.078;12.878;2023-05-22T03:14:40;96155.28;;;16.12;40.69
44079;BME280;29744;49.078;12.878;2023-05-22T03:19:40;96157.97;;;16.12;41.04
44079;BME280;29744;49.078;12.878;2023-05-22T03:24:40;96155.28;;;16.12;40.97
44079;BME280;29744;49.078;12.878;2023-05-22T03:29:41;96157.19;;;16.11;40.80
44079;BME280;29744;49.078;12.878;2023-05-22T03:34:41;96162.59;;;16.11;40.75
44079;BME280;29744;49.078;12.878;2023-05-22T03:39:42;96164.53;;;16.10;40.70
44079;BME280;29744;49.078;12.878;2023-05-22T03:44:42;96159.09;;;16.10;40.71
44079;BME280;29744;49.078;12.878;2023-05-22T03:49:42;96159.91;;;16.11;41.05
44079;BME280;29744;49.078;12.878;2023-05-22T03:54:43;96159.09;;;16.10;40.70
44079;BME280;29744;49.078;12.878;2023-05-22T03:59:43;96156.41;;;16.10;41.09
44079;BME280;29744;49.078;12.878;2023-05-22T04:04:43;96156.41;;;16.10;41.29
44079;BME280;29744;49.078;12.878;2023-05-22T04:09:45;96163.72;;;16.10;40.89
44079;BME280;29744;49.078;12.878;2023-05-22T04:14:45;96169.94;;;16.10;40.94
44079;BME280;29744;49.078;12.878;2023-05-22T04:19:45;96175.00;;;16.12;41.00
44079;BME280;29744;49.078;12.878;2023-05-22T04:24:46;96177.72;;;16.12;41.16
44079;BME280;29744;49.078;12.878;2023-05-22T04:29:48;96183.91;;;16.13;41.11
44079;BME280;29744;49.078;12.878;2023-05-22T04:34:49;96182.31;;;16.12;41.00
44079;BME280;29744;49.078;12.878;2023-05-22T04:39:50;96185.47;;;16.14;40.96
44079;BME280;29744;49.078;12.878;2023-05-22T04:44:52;96179.28;;;16.13;41.15
44079;BME280;29744;49.078;12.878;2023-05-22T04:49:53;96176.56;;;16.13;41.02
44079;BME280;29744;49.078;12.878;2023-05-22T04:54:55;96174.66;;;16.14;41.16
44079;BME280;29744;49.078;12.878;2023-05-22T04:59:55;96174.66;;;16.14;41.02
44079;BME280;29744;49.078;12.878;2023-05-22T05:04:56;96169.69;;;16.16;41.26
44079;BME280;29744;49.078;12.878;2023-05-22T05:09:56;96163.16;;;16.17;41.17
44079;BME280;29744;49.078;12.878;2023-05-22T05:14:57;96160.13;;;16.18;41.16
44079;BME280;29744;49.078;12.878;2023-05-22T05:19:57;96163.25;;;16.20;40.54
44079;BME280;29744;49.078;12.878;2023-05-22T05:24:57;96159.44;;;16.21;40.59
44079;BME280;29744;49.078;12.878;2023-05-22T05:29:58;96166.41;;;16.22;41.04
44079;BME280;29744;49.078;12.878;2023-05-22T05:34:58;96163.38;;;16.24;40.77
44079;BME280;29744;49.078;12.878;2023-05-22T05:39:58;96163.81;;;16.26;41.07
44079;BME280;29744;49.078;12.878;2023-05-22T05:44:59;96161.91;;;16.26;41.06
44079;BME280;29744;49.078;12.878;2023-05-22T05:49:59;96156.94;;;16.28;40.74
44079;BME280;29744;49.078;12.878;2023-05-22T05:54:59;96154.22;;;16.28;40.69
44079;BME280;29744;49.078;12.878;2023-05-22T06:00:00;96162.00;;;16.30;41.00
44079;BME280;29744;49.078;12.878;2023-05-22T06:05:01;96160.09;;;16.30;40.59
44079;BME280;29744;49.078;12.878;2023-05-22T06:10:03;96167.41;;;16.30;40.94
44079;BME280;29744;49.078;12.878;2023-05-22T06:15:04;96163.59;;;16.31;40.70
44079;BME280;29744;49.078;12.878;2023-05-22T06:20:05;96165.94;;;16.32;40.60
44079;BME280;29744;49.078;12.878;2023-05-22T06:25:06;96154.00;;;16.33;40.39
44079;BME280;29744;49.078;12.878;2023-05-22T06:30:07;96154.78;;;16.34;40.63
44079;BME280;29744;49.078;12.878;2023-05-22T06:35:09;96155.56;;;16.34;40.86
44079;BME280;29744;49.078;12.878;2023-05-22T06:40:09;96148.25;;;16.35;40.62
44079;BME280;29744;49.078;12.878;2023-05-22T06:45:10;96142.03;;;16.34;40.82
44079;BME280;29744;49.078;12.878;2023-05-22T06:50:10;96145.53;;;16.35;40.49
44079;BME280;29744;49.078;12.878;2023-05-22T06:55:10;96146.31;;;16.35;40.64
44079;BME280;29744;49.078;12.878;2023-05-22T07:00:11;96144.41;;;16.36;40.31
44079;BME280;29744;49.078;12.878;2023-05-22T07:05:12;96144.41;;;16.36;40.62
44079;BME280;29744;49.078;12.878;2023-05-22T07:10:12;96143.63;;;16.35;40.91
44079;BME280;29744;49.078;12.878;2023-05-22T07:15:12;96149.81;;;16.36;40.59
44079;BME280;29744;49.078;12.878;2023-05-22T07:20:13;96143.63;;;16.35;40.57
44079;BME280;29744;49.078;12.878;2023-05-22T07:25:15;96136.28;;;16.36;40.64
44079;BME280;29744;49.078;12.878;2023-05-22T07:30:15;96133.59;;;16.36;40.33
44079;BME280;29744;49.078;12.878;2023-05-22T07:35:15;96137.06;;;16.36;40.62
44079;BME280;29744;49.078;12.878;2023-05-22T07:40:16;96134.38;;;16.36;40.94
44079;BME280;29744;49.078;12.878;2023-05-22T07:45:16;96140.56;;;16.37;40.38
44079;BME280;29744;49.078;12.878;2023-05-22T07:50:16;96134.38;;;16.36;40.70
44079;BME280;29744;49.078;12.878;2023-05-22T07:55:16;96135.16;;;16.37;40.58
44079;BME280;29744;49.078;12.878;2023-05-22T08:00:17;96134.03;;;16.38;40.58
44079;BME280;29744;49.078;12.878;2023-05-22T08:05:18;96134.03;;;16.38;40.82
44079;BME280;29744;49.078;12.878;2023-05-22T08:10:18;96134.03;;;16.38;40.62
44079;BME280;29744;49.078;12.878;2023-05-22T08:15:19;96125.13;;;16.37;40.30
44079;BME280;29744;49.078;12.878;2023-05-22T08:20:19;96134.81;;;16.38;40.66
44079;BME280;29744;49.078;12.878;2023-05-22T08:25:19;96132.44;;;16.37;40.67
44079;BME280;29744;49.078;12.878;2023-05-22T08:30:20;96128.63;;;16.38;40.55
44079;BME280;29744;49.078;12.878;2023-05-22T08:35:20;96126.69;;;16.38;40.83
44079;BME280;29744;49.078;12.878;2023-05-22T08:40:20;96135.59;;;16.39;40.76
44079;BME280;29744;49.078;12.878;2023-05-22T08:45:21;96120.50;;;16.38;40.58
44079;BME280;29744;49.078;12.878;2023-05-22T08:50:23;96120.50;;;16.38;40.88
44079;BME280;29744;49.078;12.878;2023-05-22T08:55:24;96114.75;;;16.39;40.23
44079;BME280;29744;49.078;12.878;2023-05-22T09:00:24;96116.66;;;16.39;40.54
44079;BME280;29744;49.078;12.878;2023-05-22T09:05:25;96112.03;;;16.39;40.88
44079;BME280;29744;49.078;12.878;2023-05-22T09:10:25;96111.25;;;16.39;40.82
44079;BME280;29744;49.078;12.878;2023-05-22T09:15:28;96104.69;;;16.40;40.80
44079;BME280;29744;49.078;12.878;2023-05-22T09:20:37;96106.31;;;16.41;40.55
44079;BME280;29744;49.078;12.878;2023-05-22T09:25:37;96102.00;;;16.40;40.56
44079;BME280;29744;49.078;12.878;2023-05-22T09:30:38;96107.09;;;16.41;40.35
44079;BME280;29744;49.078;12.878;2023-05-22T09:35:38;96102.81;;;16.40;40.49
44079;BME280;29744;49.078;12.878;2023-05-22T09:40:39;96107.09;;;16.41;40.61
44079;BME280;29744;49.078;12.878;2023-05-22T09:45:40;96110.94;;;16.40;40.83
44079;BME280;29744;49.078;12.878;2023-05-22T09:50:46;96113.63;;;16.40;40.61
44079;BME280;29744;49.078;12.878;2023-05-22T09:55:47;96111.38;;;16.42;40.67
44079;BME280;29744;49.078;12.878;2023-05-22T10:00:48;96105.19;;;16.42;40.71
44079;BME280;29744;49.078;12.878;2023-05-22T10:05:51;96105.97;;;16.42;40.73
44079;BME280;29744;49.078;12.878;2023-05-22T10:10:53;96095.13;;;16.42;40.88
44079;BME280;29744;49.078;12.878;2023-05-22T10:15:53;96098.63;;;16.43;40.45
44079;BME280;29744;49.078;12.878;2023-05-22T10:20:56;96097.06;;;16.42;40.74
44079;BME280;29744;49.078;12.878;2023-05-22T10:25:57;96094.00;;;16.44;40.83
44079;BME280;29744;49.078;12.878;2023-05-22T10:31:02;96085.09;;;16.43;40.87
44079;BME280;29744;49.078;12.878;2023-05-22T10:41:38;96076.97;;;16.43;40.77
44079;BME280;29744;49.078;12.878;2023-05-22T10:46:39;96078.56;;;16.44;40.60
44079;BME280;29744;49.078;12.878;2023-05-22T10:51:39;96083.19;;;16.44;40.44
44079;BME280;29744;49.078;12.878;2023-05-22T10:56:40;96069.31;;;16.45;40.39
44079;BME280;29744;49.078;12.878;2023-05-22T11:01:41;96070.44;;;16.44;40.61
44079;BME280;29744;49.078;12.878;2023-05-22T11:07:01;96069.31;;;16.45;40.66
44079;BME280;29744;49.078;12.878;2023-05-22T11:17:11;96061.97;;;16.46;40.82
44079;BME280;29744;49.078;12.878;2023-05-22T11:22:12;96057.34;;;16.46;40.46
44079;BME280;29744;49.078;12.878;2023-05-22T11:27:15;96057.00;;;16.48;40.46
44079;BME280;29744;49.078;12.878;2023-05-22T11:32:16;96058.91;;;16.47;40.32
44079;BME280;29744;49.078;12.878;2023-05-22T11:37:19;96056.22;;;16.47;40.47
44079;BME280;29744;49.078;12.878;2023-05-22T11:42:20;96050.81;;;16.47;40.45
44079;BME280;29744;49.078;12.878;2023-05-22T11:47:20;96053.50;;;16.47;40.38
44079;BME280;29744;49.078;12.878;2023-05-22T11:52:21;96044.25;;;16.48;40.70
44079;BME280;29744;49.078;12.878;2023-05-22T11:57:21;96034.22;;;16.49;40.65
44079;BME280;29744;49.078;12.878;2023-05-22T12:02:22;96033.44;;;16.48;40.57
44079;BME280;29744;49.078;12.878;2023-05-22T12:07:24;96031.50;;;16.49;40.13
44079;BME280;29744;49.078;12.878;2023-05-22T12:12:25;96032.28;;;16.49;40.31
44079;BME280;29744;49.078;12.878;2023-05-22T12:17:27;96027.66;;;16.50;40.62
44079;BME280;29744;49.078;12.878;2023-05-22T12:22:27;96025.75;;;16.50;40.36
44079;BME280;29744;49.078;12.878;2023-05-22T12:27:29;96024.63;;;16.51;40.63
44079;BME280;29744;49.078;12.878;2023-05-22T12:32:30;96022.69;;;16.52;40.31
44079;BME280;29744;49.078;12.878;2023-05-22T12:37:32;96016.50;;;16.51;40.84
44079;BME280;29744;49.078;12.878;2023-05-22T12:42:33;96015.38;;;16.52;40.37
44079;BME280;29744;49.078;12.878;2023-05-22T12:47:33;96015.00;;;16.54;40.32
44079;BME280;29744;49.078;12.878;2023-05-22T12:52:33;96003.75;;;16.52;40.24
44079;BME280;29744;49.078;12.878;2023-05-22T12:57:34;96006.09;;;16.53;40.49
44079;BME280;29744;49.078;12.878;2023-05-22T13:02:35;96001.47;;;16.54;40.55
44079;BME280;29744;49.078;12.878;2023-05-22T13:07:36;96005.78;;;16.55;40.54
44079;BME280;29744;49.078;12.878;2023-05-22T13:12:36;95996.88;;;16.54;40.49
44079;BME280;29744;49.078;12.878;2023-05-22T13:17:37;95993.84;;;16.56;40.67
44079;BME280;29744;49.078;12.878;2023-05-22T13:22:37;95993.03;;;16.55;40.76
44079;BME280;29744;49.078;12.878;2023-05-22T13:27:37;95989.56;;;16.55;40.39
44079;BME280;29744;49.078;12.878;2023-05-22T13:32:38;95984.94;;;16.55;40.46
44079;BME280;29744;49.078;12.878;2023-05-22T13:37:38;95977.59;;;16.56;40.58
44079;BME280;29744;49.078;12.878;2023-05-22T13:42:38;95975.66;;;16.56;40.54
44079;BME280;29744;49.078;12.878;2023-05-22T13:47:39;95979.16;;;16.57;40.52
44079;BME280;29744;49.078;12.878;2023-05-22T13:52:39;95979.59;;;16.59;40.45
44079;BME280;29744;49.078;12.878;2023-05-22T13:57:39;95968.78;;;16.59;40.46
44079;BME280;29744;49.078;12.878;2023-05-22T14:02:40;95969.56;;;16.59;40.65
44079;BME280;29744;49.078;12.878;2023-05-22T14:07:40;95964.16;;;16.59;40.77
44079;BME280;29744;49.078;12.878;2023-05-22T14:12:40;95957.59;;;16.60;40.72
44079;BME280;29744;49.078;12.878;2023-05-22T14:17:41;95956.81;;;16.60;40.47
44079;BME280;29744;49.078;12.878;2023-05-22T14:22:41;95954.88;;;16.60;40.52
44079;BME280;29744;49.078;12.878;2023-05-22T14:27:41;95958.38;;;16.61;40.45
44079;BME280;29744;49.078;12.878;2023-05-22T14:32:42;95957.25;;;16.62;40.39
44079;BME280;29744;49.078;12.878;2023-05-22T14:37:42;95955.69;;;16.61;40.24
44079;BME280;29744;49.078;12.878;2023-05-22T14:42:43;95954.53;;;16.62;40.42
44079;BME280;29744;49.078;12.878;2023-05-22T14:47:44;95945.63;;;16.61;40.75
44079;BME280;29744;49.078;12.878;2023-05-22T14:52:44;95956.47;;;16.61;40.64
44079;BME280;29744;49.078;12.878;2023-05-22T14:57:44;95943.72;;;16.62;40.77
44079;BME280;29744;49.078;12.878;2023-05-22T15:02:45;95946.06;;;16.63;40.75
44079;BME280;29744;49.078;12.878;2023-05-22T15:07:45;95937.94;;;16.63;40.76
44079;BME280;29744;49.078;12.878;2023-05-22T15:12:46;95934.09;;;16.64;40.79
44079;BME280;29744;49.078;12.878;2023-05-22T15:17:46;95930.63;;;16.64;40.69
44079;BME280;29744;49.078;12.878;2023-05-22T15:22:46;95931.41;;;16.64;40.34
44079;BME280;29744;49.078;12.878;2023-05-22T15:27:46;95925.97;;;16.64;40.38
44079;BME280;29744;49.078;12.878;2023-05-22T15:32:47;95917.88;;;16.64;40.25
44079;BME280;29744;49.078;12.878;2023-05-22T15:37:47;95914.03;;;16.65;40.74
44079;BME280;29744;49.078;12.878;2023-05-22T15:42:47;95910.19;;;16.66;40.38
44079;BME280;29744;49.078;12.878;2023-05-22T15:47:47;95909.38;;;16.66;40.75
44079;BME280;29744;49.078;12.878;2023-05-22T15:52:48;95913.66;;;16.67;40.69
44079;BME280;29744;49.078;12.878;2023-05-22T15:57:48;95914.47;;;16.67;40.79
44079;BME280;29744;49.078;12.878;2023-05-22T16:02:49;95920.66;;;16.68;40.52
44079;BME280;29744;49.078;12.878;2023-05-22T16:07:50;95923.38;;;16.68;40.54
44079;BME280;29744;49.078;12.878;2023-05-22T16:12:50;95910.63;;;16.68;40.74
44079;BME280;29744;49.078;12.878;2023-05-22T16:17:51;95910.63;;;16.68;40.58
44079;BME280;29744;49.078;12.878;2023-05-22T16:22:51;95914.09;;;16.69;40.68
44079;BME280;29744;49.078;12.878;2023-05-22T16:27:51;95907.13;;;16.68;40.12
44079;BME280;29744;49.078;12.878;2023-05-22T16:32:52;95908.69;;;16.69;40.79
44079;BME280;29744;49.078;12.878;2023-05-22T16:37:52;95916.81;;;16.69;40.35
44079;BME280;29744;49.078;12.878;2023-05-22T16:42:52;95914.09;;;16.69;40.28
44079;BME280;29744;49.078;12.878;2023-05-22T16:47:52;95912.19;;;16.69;40.25
44079;BME280;29744;49.078;12.878;2023-05-22T16:52:53;95919.53;;;16.69;40.31
44079;BME280;29744;49.078;12.878;2023-05-22T16:57:53;95922.22;;;16.69;40.46
44079;BME280;29744;49.078;12.878;2023-05-22T17:02:53;95924.94;;;16.69;40.61
44079;BME280;29744;49.078;12.878;2023-05-22T17:07:54;95924.16;;;16.68;40.29
44079;BME280;29744;49.078;12.878;2023-05-22T17:12:55;95931.50;;;16.68;40.63
44079;BME280;29744;49.078;12.878;2023-05-22T17:17:55;95942.31;;;16.68;40.75
44079;BME280;29744;49.078;12.878;2023-05-22T17:22:55;95936.13;;;16.67;40.35
44079;BME280;29744;49.078;12.878;2023-05-22T17:27:56;95939.59;;;16.68;40.45
44079;BME280;29744;49.078;12.878;2023-05-22T17:32:56;95947.72;;;16.68;40.71
44079;BME280;29744;49.078;12.878;2023-05-22T17:37:56;95946.94;;;16.67;40.54
44079;BME280;29744;49.078;12.878;2023-05-22T17:42:57;95949.66;;;16.67;40.22
44079;BME280;29744;49.078;12.878;2023-05-22T17:47:59;95955.06;;;16.67;40.61
44079;BME280;29744;49.078;12.878;2023-05-22T17:52:59;95952.34;;;16.67;40.28
44079;BME280;29744;49.078;12.878;2023-05-22T17:58:00;95948.88;;;16.67;40.50
44079;BME280;29744;49.078;12.878;2023-05-22T18:03:00;95953.16;;;16.68;40.35
44079;BME280;29744;49.078;12.878;2023-05-22T18:08:00;95949.66;;;16.67;40.69
44079;BME280;29744;49.078;12.878;2023-05-22T18:13:00;95947.28;;;16.66;40.61
44079;BME280;29744;49.078;12.878;2023-05-22T18:18:01;95939.97;;;16.66;40.56
44079;BME280;29744;49.078;12.878;2023-05-22T18:23:02;95944.25;;;16.67;40.58
44079;BME280;29744;49.078;12.878;2023-05-22T18:28:02;95939.16;;;16.66;40.48
44079;BME280;29744;49.078;12.878;2023-05-22T18:33:02;95937.59;;;16.65;40.35
44079;BME280;29744;49.078;12.878;2023-05-22T18:38:03;95939.53;;;16.64;40.55
44079;BME280;29744;49.078;12.878;2023-05-22T18:43:06;95951.13;;;16.65;40.42
44079;BME280;29744;49.078;12.878;2023-05-22T18:48:06;95950.34;;;16.64;40.37
44079;BME280;29744;49.078;12.878;2023-05-22T18:53:06;95942.56;;;16.63;40.74
44079;BME280;29744;49.078;12.878;2023-05-22T18:58:08;95946.41;;;16.62;40.63
44079;BME280;29744;49.078;12.878;2023-05-22T19:03:08;95955.31;;;16.62;40.51
44079;BME280;29744;49.078;12.878;2023-05-22T19:08:10;95960.75;;;16.62;40.72
44079;BME280;29744;49.078;12.878;2023-05-22T19:13:10;95967.28;;;16.61;40.56
44079;BME280;29744;49.078;12.878;2023-05-22T19:18:10;95964.94;;;16.60;40.82
44079;BME280;29744;49.078;12.878;2023-05-22T19:23:10;95976.53;;;16.60;40.56
44079;BME280;29744;49.078;12.878;2023-05-22T19:28:12;95981.19;;;16.60;40.51
44079;BME280;29744;49.078;12.878;2023-05-22T19:33:13;95983.88;;;16.60;40.64
44079;BME280;29744;49.078;12.878;2023-05-22T19:38:13;95989.28;;;16.60;41.00
44079;BME280;29744;49.078;12.878;2023-05-22T19:43:14;95989.66;;;16.58;40.56
44079;BME280;29744;49.078;12.878;2023-05-22T19:48:14;96003.97;;;16.59;40.86
44079;BME280;29744;49.078;12.878;2023-05-22T19:53:14;96006.66;;;16.59;41.02
44079;BME280;29744;49.078;12.878;2023-05-22T19:58:15;96005.88;;;16.58;40.77
44079;BME280;29744;49.078;12.878;2023-05-22T20:03:16;96000.03;;;16.56;40.88
44079;BME280;29744;49.078;12.878;2023-05-22T20:08:16;96005.44;;;16.56;40.86
44079;BME280;29744;49.078;12.878;2023-05-22T20:13:17;96005.44;;;16.56;40.99
44079;BME280;29744;49.078;12.878;2023-05-22T20:18:18;96004.66;;;16.56;41.01
44079;BME280;29744;49.078;12.878;2023-05-22T20:23:19;96016.28;;;16.56;41.01
44079;BME280;29744;49.078;12.878;2023-05-22T20:28:19;96014.69;;;16.55;40.71
44079;BME280;29744;49.078;12.878;2023-05-22T20:33:20;96020.91;;;16.56;41.20
44079;BME280;29744;49.078;12.878;2023-05-22T20:38:20;96017.41;;;16.55;41.21
44079;BME280;29744;49.078;12.878;2023-05-22T20:43:21;96025.53;;;16.55;41.24
44079;BME280;29744;49.078;12.878;2023-05-22T20:48:21;96029.03;;;16.56;40.99
44079;BME280;29744;49.078;12.878;2023-05-22T20:53:22;96021.69;;;16.56;40.95
44079;BME280;29744;49.078;12.878;2023-05-22T20:58:23;96030.16;;;16.55;41.19
44079;BME280;29744;49.078;12.878;2023-05-22T21:03:23;96026.66;;;16.54;41.02
44079;BME280;29744;49.078;12.878;2023-05-22T21:08:24;96032.06;;;16.54;41.14
44079;BME280;29744;49.078;12.878;2023-05-22T21:13:24;96025.84;;;16.54;41.24
44079;BME280;29744;49.078;12.878;2023-05-22T21:18:24;96031.25;;;16.54;40.89
44079;BME280;29744;49.078;12.878;2023-05-22T21:23:25;96035.56;;;16.55;41.01
44079;BME280;29744;49.078;12.878;2023-05-22T21:28:25;96032.06;;;16.54;40.86
44079;BME280;29744;49.078;12.878;2023-05-22T21:33:25;96036.66;;;16.54;41.00
44079;BME280;29744;49.078;12.878;2023-05-22T21:38:25;96034.78;;;16.54;41.12
44079;BME280;29744;49.078;12.878;2023-05-22T21:43:26;96035.88;;;16.53;41.02
44079;BME280;29744;49.078;12.878;2023-05-22T21:48:26;96039.38;;;16.54;41.07
44079;BME280;29744;49.078;12.878;2023-05-22T21:53:26;96033.97;;;16.54;41.17
44079;BME280;29744;49.078;12.878;2023-05-22T21:58:26;96035.88;;;16.53;41.00
44079;BME280;29744;49.078;12.878;2023-05-22T22:03:27;96034.31;;;16.52;41.26
44079;BME280;29744;49.078;12.878;2023-05-22T22:08:27;96035.88;;;16.53;40.94
44079;BME280;29744;49.078;12.878;2023-05-22T22:13:28;96034.31;;;16.52;41.16
44079;BME280;29744;49.078;12.878;2023-05-22T22:18:30;96025.06;;;16.53;41.23
44079;BME280;29744;49.078;12.878;2023-05-22T22:23:32;96026.97;;;16.53;40.81
44079;BME280;29744;49.078;12.878;2023-05-22T22:28:32;96020.00;;;16.52;40.62
44079;BME280;29744;49.078;12.878;2023-05-22T22:33:33;96015.38;;;16.52;40.97
44079;BME280;29744;49.078;12.878;2023-05-22T22:38:33;96018.06;;;16.52;41.30
44079;BME280;29744;49.078;12.878;2023-05-22T22:43:34;96021.91;;;16.51;40.79
44079;BME280;29744;49.078;12.878;2023-05-22T22:48:35;96026.19;;;16.52;41.29
44079;BME280;29744;49.078;12.878;2023-05-22T22:53:35;96023.81;;;16.51;40.86
44079;BME280;29744;49.078;12.878;2023-05-22T22:58:37;96024.63;;;16.51;41.01
44079;BME280;29744;49.078;12.878;2023-05-22T23:03:37;96021.91;;;16.51;40.95
44079;BME280;29744;49.078;12.878;2023-05-22T23:08:37;96027.31;;;16.51;41.28
44079;BME280;29744;49.078;12.878;2023-05-22T23:13:38;96011.44;;;16.50;41.09
44079;BME280;29744;49.078;12.878;2023-05-22T23:18:39;96013.00;;;16.51;40.95
44079;BME280;29744;49.078;12.878;2023-05-22T23:23:40;96018.75;;;16.49;41.09
44079;BME280;29744;49.078;12.878;2023-05-22T23:28:40;96008.72;;;16.50;40.87
44079;BME280;29744;49.078;12.878;2023-05-22T23:33:41;96011.44;;;16.50;40.77
44079;BME280;29744;49.078;12.878;2023-05-22T23:38:41;96005.22;;;16.49;40.83
44079;BME280;29744;49.078;12.878;2023-05-22T23:43:42;96007.94;;;16.49;41.35
44079;BME280;29744;49.078;12.878;2023-05-22T23:48:42;96002.53;;;16.49;40.83
44079;BME280;29744;49.078;12.878;2023-05-22T23:53:43;96005.22;;;16.49;40.83
44079;BME280;29744;49.078;12.878;2023-05-22T23:58:43;96009.06;;;16.48;41.04
